Boulder City Municipal Airport

About
Name: Boulder City Municipal Airport
Identifier:  BLD/KBVU
Serves:  Boulder City, Nevada
Owner:  Boulder City Municipality
Public/Private:  Public
Local Time:  25. Aug 01:51 PDT
Description: Boulder City Municipal Airport is a public use airport located one nautical mile southwest of the central business district of Boulder City, in Clark County, Nevada, United States. It is owned by Boulder City Municipality.[1]
Source: Wikipedia
Location
Boulder City
  United States

Runways
Identifier Length (m/ft) Surface
9L/27R 2,166/2,166 Asphalt
9R/27L 4,803/4,803 Asphalt
15/33 3,852/3,852 Asphalt
Flights per Day
0 flights
Distance: 324km (201mi)
Punctuality
0% (0 flights per day delayed)
Delay Average: 276 minutes
Current Weather
 29 C (Humidity: 35%)
  0kt (0km/h / 0mph) from 0°
  Few clouds at 4,700 feet (1,432 meter)
  Few clouds at 5,500 feet (1,676 meter)
  16km (10 mi.)
 METAR KBVU 250835Z AUTO 00000KT 10SM FEW047 FEW055 29/12 A2995 RMK AO2

Current Flights

Departures
Number Departure To Airline
Arrivals
Number Arrival From Airline

Current Delays

Departures
N/A
Arrivals
N/A